createdAt,value
2018-08-24T00:00:16.991Z,3.63
2018-08-24T00:02:47.591Z,3.40
2018-08-24T00:05:16.537Z,3.47
2018-08-24T00:07:45.529Z,3.67
2018-08-24T00:10:14.563Z,3.17
2018-08-24T00:12:43.516Z,3.13
2018-08-24T00:15:12.377Z,3.30
2018-08-24T00:17:45.552Z,3.50
2018-08-24T00:20:14.370Z,3.27
2018-08-24T00:22:43.615Z,3.33
2018-08-24T00:25:12.495Z,3.43
2018-08-24T00:27:41.384Z,3.27
2018-08-24T00:30:10.453Z,2.80
2018-08-24T00:32:39.294Z,3.30
2018-08-24T00:35:08.196Z,2.90
2018-08-24T00:37:37.388Z,3.20
2018-08-24T00:40:06.545Z,2.97
2018-08-24T00:42:35.567Z,3.57
2018-08-24T00:45:06.196Z,2.57
2018-08-24T00:47:35.154Z,2.90
2018-08-24T00:50:04.098Z,3.03
2018-08-24T00:52:33.125Z,2.97
2018-08-24T00:55:01.963Z,3.13
2018-08-24T00:57:30.997Z,2.60
2018-08-24T01:00:00.165Z,3.00
2018-08-24T01:02:29.020Z,2.37
2018-08-24T01:04:57.852Z,2.57
2018-08-24T01:07:26.814Z,2.87
2018-08-24T01:09:55.773Z,2.27
2018-08-24T01:12:24.625Z,2.80
2018-08-24T01:14:53.491Z,1.70
2018-08-24T01:17:27.597Z,2.10
2018-08-24T01:19:56.441Z,1.97
2018-08-24T01:22:25.320Z,1.47
2018-08-24T01:24:54.151Z,1.70
2018-08-24T01:27:23.088Z,1.53
2018-08-24T01:29:51.946Z,1.50
2018-08-24T01:32:20.752Z,1.40
2018-08-24T01:34:49.756Z,1.47
2018-08-24T01:37:18.688Z,1.20
2018-08-24T01:39:47.570Z,1.50
2018-08-24T01:42:16.373Z,1.50
2018-08-24T01:44:45.247Z,1.63
2018-08-24T01:47:14.046Z,1.63
2018-08-24T01:49:43.070Z,1.70
2018-08-24T01:52:11.937Z,1.60
2018-08-24T01:54:40.747Z,1.67
2018-08-24T01:57:09.609Z,1.80
2018-08-24T01:59:38.513Z,2.17
2018-08-24T02:02:07.937Z,1.93
2018-08-24T02:04:36.818Z,2.17
2018-08-24T02:07:05.645Z,2.10
2018-08-24T02:09:34.497Z,2.63
2018-08-24T02:12:03.542Z,2.10
2018-08-24T02:14:37.752Z,2.20
2018-08-24T02:17:10.730Z,2.13
2018-08-24T02:19:44.890Z,2.33
2018-08-24T02:22:17.784Z,2.73
2018-08-24T02:24:46.652Z,2.10
2018-08-24T02:27:15.472Z,1.97
2018-08-24T02:29:44.412Z,2.63
2018-08-24T02:32:13.207Z,2.60
2018-08-24T02:34:42.055Z,2.17
2018-08-24T02:37:11.020Z,2.33
2018-08-24T02:39:39.876Z,2.10
2018-08-24T02:42:08.707Z,2.30
2018-08-24T02:44:37.694Z,2.60
2018-08-24T02:47:06.511Z,2.47
2018-08-24T02:49:35.353Z,2.27
2018-08-24T02:52:04.367Z,2.27
2018-08-24T02:54:33.186Z,2.20
2018-08-24T02:57:02.151Z,2.37
2018-08-24T02:59:31.000Z,2.00
2018-08-24T03:02:00.793Z,2.20
2018-08-24T03:04:29.886Z,2.20
2018-08-24T03:06:58.742Z,2.60
2018-08-24T03:09:27.649Z,2.47
2018-08-24T03:11:56.624Z,2.27
2018-08-24T03:14:25.597Z,2.30
2018-08-24T03:17:00.063Z,2.33
2018-08-24T03:19:28.882Z,1.97
2018-08-24T03:21:57.755Z,2.40
2018-08-24T03:24:26.754Z,2.53
2018-08-24T03:26:55.827Z,2.53
2018-08-24T03:29:24.712Z,2.60
2018-08-24T03:31:53.690Z,2.30
2018-08-24T03:34:22.524Z,2.63
2018-08-24T03:36:51.397Z,2.90
2018-08-24T03:39:20.230Z,2.50
2018-08-24T03:41:49.155Z,2.30
2018-08-24T03:44:18.005Z,2.33
2018-08-24T03:46:46.866Z,2.40
2018-08-24T03:49:15.795Z,2.43
2018-08-24T03:51:44.669Z,2.60
2018-08-24T03:54:14.271Z,2.13
2018-08-24T03:56:44.556Z,2.60
2018-08-24T03:59:13.450Z,2.53
2018-08-24T04:01:42.533Z,2.70
2018-08-24T04:04:11.664Z,2.83
2018-08-24T04:06:40.547Z,2.60
2018-08-24T04:09:09.468Z,2.70
2018-08-24T04:11:39.447Z,2.90
2018-08-24T04:14:08.301Z,3.20
2018-08-24T04:16:42.558Z,2.77
2018-08-24T04:19:30.894Z,3.07
2018-08-24T04:22:00.072Z,2.60
2018-08-24T04:24:28.917Z,3.00
2018-08-24T04:26:58.108Z,2.83
2018-08-24T04:29:27.125Z,2.80
2018-08-24T04:31:56.011Z,2.63
2018-08-24T04:34:24.974Z,2.80
2018-08-24T04:36:54.023Z,2.73
2018-08-24T04:39:22.870Z,2.73
2018-08-24T04:41:51.772Z,2.67
2018-08-24T04:44:20.573Z,2.90
2018-08-24T04:46:49.507Z,3.00
2018-08-24T04:49:18.368Z,2.63
2018-08-24T04:51:47.508Z,2.90
2018-08-24T04:54:16.685Z,2.90
2018-08-24T04:56:46.358Z,3.07
2018-08-24T04:59:15.429Z,2.97
2018-08-24T05:01:45.449Z,3.07
2018-08-24T05:04:15.316Z,3.20
2018-08-24T05:06:44.613Z,3.20
2018-08-24T05:09:13.788Z,3.60
2018-08-24T05:11:43.128Z,3.10
2018-08-24T05:14:12.279Z,3.50
2018-08-24T05:16:41.722Z,3.90
2018-08-24T05:19:11.100Z,3.50
2018-08-24T05:21:40.134Z,4.17
2018-08-24T05:24:09.062Z,4.10
2018-08-24T05:26:38.001Z,3.70
2018-08-24T05:29:07.140Z,4.13
2018-08-24T05:31:36.188Z,4.60
2018-08-24T05:34:05.286Z,4.33
2018-08-24T05:36:34.363Z,4.30
2018-08-24T05:39:04.644Z,3.90
2018-08-24T05:41:33.637Z,4.07
2018-08-24T05:44:02.720Z,3.93
2018-08-24T05:46:31.783Z,4.10
2018-08-24T05:49:00.654Z,4.77
2018-08-24T05:51:29.811Z,4.13
2018-08-24T05:53:58.694Z,4.17
2018-08-24T05:56:27.549Z,4.63
2018-08-24T05:58:56.561Z,4.70
2018-08-24T06:01:25.471Z,5.07
2018-08-24T06:03:54.384Z,5.20
2018-08-24T06:06:24.457Z,4.97
2018-08-24T06:08:58.534Z,5.50
2018-08-24T06:11:27.424Z,6.23
2018-08-24T06:13:56.373Z,5.97
2018-08-24T06:16:25.302Z,6.20
2018-08-24T06:18:54.388Z,5.63
2018-08-24T06:21:23.758Z,6.30
2018-08-24T06:23:52.643Z,6.80
2018-08-24T06:26:21.533Z,5.23
2018-08-24T06:28:51.020Z,6.83
2018-08-24T06:31:19.968Z,5.93
2018-08-24T06:33:49.360Z,5.90
2018-08-24T06:36:18.434Z,6.73
2018-08-24T06:38:47.407Z,7.80
2018-08-24T06:41:16.271Z,6.33
2018-08-24T06:43:45.253Z,6.57
2018-08-24T06:46:14.461Z,6.83
2018-08-24T06:48:43.394Z,7.17
2018-08-24T06:51:12.605Z,7.00
2018-08-24T06:53:42.474Z,7.27
2018-08-24T06:56:11.814Z,7.40
2018-08-24T06:58:41.570Z,7.80
2018-08-24T07:01:11.155Z,7.90
2018-08-24T07:03:40.665Z,7.30
2018-08-24T07:06:09.921Z,7.50
2018-08-24T07:08:39.054Z,8.20
2018-08-24T07:11:08.789Z,9.23
2018-08-24T07:13:38.721Z,8.63
2018-08-24T07:16:08.210Z,9.83
2018-08-24T07:18:37.879Z,8.47
2018-08-24T07:21:07.281Z,8.40
2018-08-24T07:23:37.365Z,8.43
2018-08-24T07:26:07.277Z,9.20
2018-08-24T07:28:36.754Z,8.50
2018-08-24T07:31:05.963Z,9.23
2018-08-24T07:33:35.407Z,9.07
2018-08-24T07:36:05.661Z,8.13
2018-08-24T07:38:36.852Z,9.27
2018-08-24T07:41:06.183Z,9.03
2018-08-24T07:43:36.540Z,10.03
2018-08-24T07:46:07.675Z,9.17
2018-08-24T07:48:37.610Z,9.30
2018-08-24T07:51:08.375Z,9.33
2018-08-24T07:53:37.319Z,9.87
2018-08-24T07:56:06.871Z,8.97
2018-08-24T07:58:35.738Z,9.23
2018-08-24T08:01:04.897Z,9.90
2018-08-24T08:03:33.867Z,9.60
2018-08-24T08:06:02.912Z,8.87
2018-08-24T08:08:32.032Z,8.73
2018-08-24T08:11:00.939Z,8.50
2018-08-24T08:13:29.943Z,8.50
2018-08-24T08:15:59.876Z,8.10
2018-08-24T08:18:28.939Z,8.70
2018-08-24T08:20:57.968Z,8.13
2018-08-24T08:23:27.111Z,9.60
2018-08-24T08:25:56.243Z,8.70
2018-08-24T08:28:25.224Z,9.13
2018-08-24T08:30:54.199Z,9.63
2018-08-24T08:33:23.522Z,8.80
2018-08-24T08:35:52.609Z,8.67
2018-08-24T08:38:21.653Z,8.57
2018-08-24T08:40:50.535Z,7.97
2018-08-24T08:43:19.614Z,7.77
2018-08-24T08:45:48.953Z,8.43
2018-08-24T08:48:18.254Z,8.53
2018-08-24T08:50:47.416Z,7.40
2018-08-24T08:53:16.358Z,8.43
2018-08-24T08:55:45.380Z,7.90
2018-08-24T08:58:15.089Z,7.73
2018-08-24T09:00:44.235Z,7.97
2018-08-24T09:03:13.258Z,7.27
2018-08-24T09:05:42.153Z,8.30
2018-08-24T09:08:11.394Z,7.90
2018-08-24T09:10:41.550Z,7.23
2018-08-24T09:13:10.693Z,7.17
2018-08-24T09:15:39.839Z,7.73
2018-08-24T09:18:14.018Z,7.27
2018-08-24T09:20:48.275Z,6.50
2018-08-24T09:23:22.350Z,6.33
2018-08-24T09:25:56.715Z,7.00
2018-08-24T09:28:35.949Z,6.90
2018-08-24T09:31:12.564Z,6.70
2018-08-24T09:33:41.517Z,6.27
2018-08-24T09:36:16.063Z,7.00
2018-08-24T09:38:45.300Z,7.20
2018-08-24T09:41:14.387Z,7.47
2018-08-24T09:43:48.709Z,6.97
2018-08-24T09:46:17.709Z,6.70
2018-08-24T09:48:52.232Z,5.93
2018-08-24T09:51:25.801Z,6.10
2018-08-24T09:54:00.253Z,7.67
2018-08-24T09:56:30.692Z,8.67
2018-08-24T09:59:00.352Z,8.77
2018-08-24T10:01:34.765Z,8.47
2018-08-24T10:04:09.208Z,8.53
2018-08-24T10:06:43.569Z,8.60
2018-08-24T10:09:13.958Z,10.00
2018-08-24T10:11:43.170Z,11.00
2018-08-24T10:14:12.654Z,10.57
2018-08-24T10:16:41.878Z,11.17
2018-08-24T10:19:13.283Z,12.07
2018-08-24T10:21:42.960Z,12.93
2018-08-24T10:24:12.046Z,12.67
2018-08-24T10:26:41.145Z,11.57
2018-08-24T10:29:10.439Z,11.87
2018-08-24T10:31:39.492Z,11.40
2018-08-24T10:34:08.625Z,10.97
2018-08-24T10:36:38.053Z,9.67
2018-08-24T10:39:10.758Z,8.63
2018-08-24T10:41:39.907Z,7.73
2018-08-24T10:44:09.106Z,6.80
2018-08-24T10:46:38.176Z,6.37
2018-08-24T10:49:07.258Z,6.17
2018-08-24T10:51:36.310Z,6.30
2018-08-24T10:54:05.521Z,5.47
2018-08-24T10:56:35.057Z,5.60
2018-08-24T10:59:04.456Z,5.30
2018-08-24T11:01:33.641Z,6.17
2018-08-24T11:04:02.737Z,5.90
2018-08-24T11:06:31.716Z,5.30
2018-08-24T11:09:00.536Z,5.97
2018-08-24T11:11:29.522Z,5.90
2018-08-24T11:13:58.397Z,4.57
2018-08-24T11:16:27.254Z,4.70
2018-08-24T11:18:56.266Z,4.30
2018-08-24T11:21:25.133Z,4.40
2018-08-24T11:23:54.138Z,4.60
2018-08-24T11:26:23.183Z,4.70
2018-08-24T11:28:52.452Z,4.90
2018-08-24T11:31:21.595Z,4.47
2018-08-24T11:33:50.661Z,4.20
2018-08-24T11:36:19.673Z,4.00
2018-08-24T11:38:49.719Z,4.20
2018-08-24T11:41:18.962Z,4.50
2018-08-24T11:43:47.859Z,4.57
2018-08-24T11:46:17.852Z,4.97
2018-08-24T11:48:46.774Z,4.10
2018-08-24T11:51:15.884Z,3.93
2018-08-24T11:53:44.779Z,4.37
2018-08-24T11:56:13.803Z,4.70
2018-08-24T11:58:42.841Z,4.30
2018-08-24T12:01:11.761Z,3.53
2018-08-24T12:03:40.825Z,4.00
2018-08-24T12:06:09.775Z,4.77
2018-08-24T12:08:38.878Z,4.60
2018-08-24T12:11:08.114Z,4.70
2018-08-24T12:13:37.386Z,4.30
2018-08-24T12:16:06.472Z,4.53
2018-08-24T12:18:35.560Z,4.53
2018-08-24T12:21:04.894Z,4.80
2018-08-24T12:23:34.059Z,4.50
2018-08-24T12:26:03.086Z,4.67
2018-08-24T12:28:32.109Z,4.67
2018-08-24T12:31:01.324Z,3.83
2018-08-24T12:33:30.439Z,5.13
2018-08-24T12:36:00.507Z,4.27
2018-08-24T12:38:29.771Z,3.93
2018-08-24T12:40:58.997Z,3.17
2018-08-24T12:43:35.088Z,3.50
2018-08-24T12:46:04.388Z,3.07
2018-08-24T12:48:33.814Z,3.00
2018-08-24T12:51:02.882Z,4.03
2018-08-24T12:53:32.126Z,3.60
2018-08-24T12:56:01.004Z,3.33
2018-08-24T12:58:30.031Z,3.30
2018-08-24T13:00:59.248Z,3.30
2018-08-24T13:03:28.281Z,3.17
2018-08-24T13:05:57.391Z,3.37
2018-08-24T13:08:26.615Z,2.80
2018-08-24T13:10:55.632Z,3.30
2018-08-24T13:13:24.565Z,2.77
2018-08-24T13:15:53.550Z,3.40
2018-08-24T13:18:22.757Z,2.50
2018-08-24T13:20:51.805Z,3.23
2018-08-24T13:23:20.733Z,3.33
2018-08-24T13:25:49.636Z,2.60
2018-08-24T13:28:19.007Z,2.67
2018-08-24T13:30:48.168Z,2.60
2018-08-24T13:33:17.249Z,2.53
2018-08-24T13:35:46.319Z,2.50
2018-08-24T13:38:15.279Z,2.30
2018-08-24T13:40:44.206Z,2.30
2018-08-24T13:43:13.245Z,1.80
2018-08-24T13:45:42.192Z,2.30
2018-08-24T13:48:11.378Z,1.90
2018-08-24T13:50:40.359Z,1.80
2018-08-24T13:53:09.238Z,1.77
2018-08-24T13:55:38.311Z,2.10
2018-08-24T13:58:07.340Z,1.83
2018-08-24T14:00:36.338Z,1.83
2018-08-24T14:03:05.297Z,2.00
2018-08-24T14:05:35.438Z,2.13
2018-08-24T14:08:04.572Z,2.30
2018-08-24T14:10:33.550Z,2.27
2018-08-24T14:13:02.490Z,2.23
2018-08-24T14:15:31.520Z,1.80
2018-08-24T14:18:01.942Z,2.10
2018-08-24T14:20:31.899Z,1.87
2018-08-24T14:23:01.190Z,2.17
2018-08-24T14:25:30.553Z,2.57
2018-08-24T14:27:59.354Z,1.73
2018-08-24T14:30:28.221Z,2.40
2018-08-24T14:32:57.574Z,2.07
2018-08-24T14:35:26.541Z,2.20
2018-08-24T14:37:55.493Z,2.77
2018-08-24T14:40:25.414Z,2.30
2018-08-24T14:42:54.491Z,2.20
2018-08-24T14:45:23.964Z,2.30
2018-08-24T14:47:52.931Z,2.70
2018-08-24T14:50:21.794Z,2.30
2018-08-24T14:52:50.907Z,2.70
2018-08-24T14:55:20.880Z,2.40
2018-08-24T14:57:49.953Z,2.70
2018-08-24T15:00:19.021Z,2.40
2018-08-24T15:02:47.822Z,2.70
2018-08-24T15:05:16.758Z,2.10
2018-08-24T15:07:45.666Z,2.80
2018-08-24T15:10:14.963Z,2.60
2018-08-24T15:12:43.841Z,3.00
2018-08-24T15:15:12.675Z,2.33
2018-08-24T15:17:41.576Z,2.00
2018-08-24T15:20:10.583Z,2.80
2018-08-24T15:22:39.444Z,2.50
2018-08-24T15:25:08.446Z,2.63
2018-08-24T15:27:37.258Z,2.90
2018-08-24T15:30:06.570Z,2.60
2018-08-24T15:32:35.551Z,2.10
2018-08-24T15:35:04.571Z,2.60
2018-08-24T15:37:33.777Z,2.30
2018-08-24T15:40:03.216Z,2.20
2018-08-24T15:42:32.936Z,2.23
2018-08-24T15:45:01.775Z,2.40
2018-08-24T15:47:30.619Z,2.07
2018-08-24T15:49:59.463Z,1.90
2018-08-24T15:52:28.290Z,2.07
2018-08-24T15:54:57.224Z,2.40
2018-08-24T15:57:27.097Z,2.07
2018-08-24T15:59:56.110Z,2.10
2018-08-24T16:02:28.732Z,1.80
2018-08-24T16:04:57.805Z,1.90
2018-08-24T16:07:26.688Z,2.00
2018-08-24T16:09:56.415Z,1.70
2018-08-24T16:12:26.204Z,1.73
2018-08-24T16:14:55.156Z,1.63
2018-08-24T16:17:24.191Z,1.67
2018-08-24T16:19:53.052Z,2.07
2018-08-24T16:22:21.838Z,1.60
2018-08-24T16:24:50.763Z,2.00
2018-08-24T16:27:23.278Z,2.10
2018-08-24T16:29:54.032Z,1.90
2018-08-24T16:32:23.036Z,1.50
2018-08-24T16:34:52.247Z,2.10
2018-08-24T16:37:21.297Z,1.77
2018-08-24T16:39:50.368Z,1.73
2018-08-24T16:42:19.211Z,1.90
2018-08-24T16:44:48.134Z,1.93
2018-08-24T16:47:16.977Z,1.90
2018-08-24T16:49:45.863Z,2.57
2018-08-24T16:52:14.706Z,1.97
2018-08-24T16:54:43.478Z,1.90
2018-08-24T16:57:13.804Z,1.90
2018-08-24T16:59:42.919Z,1.97
2018-08-24T17:02:11.844Z,1.83
2018-08-24T17:04:40.722Z,2.00
2018-08-24T17:07:09.593Z,2.50
2018-08-24T17:09:45.001Z,2.10
2018-08-24T17:12:13.817Z,2.03
2018-08-24T17:14:42.526Z,1.90
2018-08-24T17:17:11.497Z,2.67
2018-08-24T17:19:40.379Z,2.00
2018-08-24T17:22:09.238Z,1.80
2018-08-24T17:24:38.042Z,1.97
2018-08-24T17:27:06.906Z,1.83
2018-08-24T17:29:35.938Z,1.60
2018-08-24T17:32:04.711Z,1.73
2018-08-24T17:34:33.534Z,1.87
2018-08-24T17:37:02.667Z,1.90
2018-08-24T17:39:31.406Z,1.80
2018-08-24T17:42:00.249Z,1.70
2018-08-24T17:44:29.092Z,1.77
2018-08-24T17:46:57.972Z,1.57
2018-08-24T17:49:26.748Z,1.70
2018-08-24T17:51:55.602Z,1.93
2018-08-24T17:54:24.591Z,2.17
2018-08-24T17:56:53.429Z,1.60
2018-08-24T17:59:22.446Z,1.70
2018-08-24T18:01:51.290Z,1.60
2018-08-24T18:04:20.178Z,1.50
2018-08-24T18:06:49.096Z,1.80
2018-08-24T18:09:18.144Z,2.10
2018-08-24T18:11:46.882Z,1.83
2018-08-24T18:14:15.697Z,1.67
2018-08-24T18:16:44.551Z,1.60
2018-08-24T18:19:13.253Z,1.80
2018-08-24T18:21:42.097Z,1.57
2018-08-24T18:24:10.945Z,1.97
2018-08-24T18:26:39.676Z,2.30
2018-08-24T18:29:08.675Z,1.80
2018-08-24T18:31:37.673Z,2.40
2018-08-24T18:34:06.690Z,2.83
2018-08-24T18:36:35.461Z,2.07
2018-08-24T18:39:08.478Z,2.17
2018-08-24T18:41:37.301Z,2.07
2018-08-24T18:44:06.340Z,1.83
2018-08-24T18:46:35.213Z,2.10
2018-08-24T18:49:04.046Z,1.90
2018-08-24T18:51:32.821Z,1.93
2018-08-24T18:54:01.650Z,1.83
2018-08-24T18:56:30.604Z,2.00
2018-08-24T18:58:59.439Z,1.90
2018-08-24T19:01:28.192Z,1.93
2018-08-24T19:03:57.066Z,1.93
2018-08-24T19:06:26.875Z,1.90
2018-08-24T19:08:55.693Z,2.00
2018-08-24T19:11:29.817Z,1.80
2018-08-24T19:13:58.759Z,1.50
2018-08-24T19:16:27.540Z,1.87
2018-08-24T19:19:01.634Z,1.83
2018-08-24T19:21:35.636Z,2.10
2018-08-24T19:24:04.436Z,1.60
2018-08-24T19:26:33.256Z,2.03
2018-08-24T19:29:07.311Z,1.90
2018-08-24T19:31:36.149Z,1.80
2018-08-24T19:34:05.123Z,1.93
2018-08-24T19:36:33.918Z,1.83
2018-08-24T19:39:02.768Z,1.87
2018-08-24T19:41:36.877Z,1.63
2018-08-24T19:44:05.954Z,1.83
2018-08-24T19:46:34.856Z,1.70
2018-08-24T19:49:09.063Z,1.60
2018-08-24T19:51:37.844Z,1.80
2018-08-24T19:54:06.698Z,1.97
2018-08-24T19:56:35.686Z,1.70
2018-08-24T19:59:06.454Z,1.87
2018-08-24T20:01:37.980Z,1.90
2018-08-24T20:04:13.704Z,1.90
2018-08-24T20:06:47.897Z,1.37
2018-08-24T20:09:22.140Z,1.40
2018-08-24T20:11:52.018Z,1.90
2018-08-24T20:14:26.315Z,1.50
2018-08-24T20:17:58.490Z,1.50
2018-08-24T20:20:27.388Z,1.60
2018-08-24T20:22:56.238Z,1.87
2018-08-24T20:25:25.198Z,1.80
2018-08-24T20:27:53.907Z,1.40
2018-08-24T20:30:22.627Z,1.60
2018-08-24T20:32:51.408Z,1.83
2018-08-24T20:35:20.338Z,1.40
2018-08-24T20:37:49.255Z,1.57
2018-08-24T20:40:18.107Z,1.80
2018-08-24T20:42:46.952Z,1.40
2018-08-24T20:45:15.781Z,1.70
2018-08-24T20:47:44.661Z,1.33
2018-08-24T20:50:13.351Z,1.50
2018-08-24T20:52:42.264Z,1.67
2018-08-24T20:55:10.991Z,1.30
2018-08-24T20:57:39.791Z,1.73
2018-08-24T21:00:08.549Z,1.60
2018-08-24T21:02:37.378Z,1.37
2018-08-24T21:05:06.484Z,1.30
2018-08-24T21:07:35.181Z,1.43
2018-08-24T21:10:04.291Z,1.87
2018-08-24T21:12:33.266Z,1.50
2018-08-24T21:15:02.212Z,1.50
2018-08-24T21:17:30.957Z,1.57
2018-08-24T21:19:59.761Z,1.40
2018-08-24T21:22:28.481Z,1.60
2018-08-24T21:24:57.375Z,1.33
2018-08-24T21:27:27.006Z,1.60
2018-08-24T21:29:55.751Z,1.13
2018-08-24T21:32:24.511Z,1.27
2018-08-24T21:34:53.228Z,1.50
2018-08-24T21:37:22.101Z,1.50
2018-08-24T21:39:51.136Z,1.57
2018-08-24T21:42:19.881Z,2.53
2018-08-24T21:44:48.601Z,1.70
2018-08-24T21:47:17.419Z,1.73
2018-08-24T21:49:46.145Z,1.50
2018-08-24T21:52:14.897Z,1.40
2018-08-24T21:54:43.733Z,1.30
2018-08-24T21:57:12.391Z,1.10
2018-08-24T21:59:41.270Z,1.23
2018-08-24T22:02:10.136Z,1.30
2018-08-24T22:04:39.056Z,1.40
2018-08-24T22:07:08.214Z,1.20
2018-08-24T22:09:36.940Z,1.20
2018-08-24T22:12:05.659Z,1.30
2018-08-24T22:14:34.481Z,1.33
2018-08-24T22:17:03.219Z,1.23
2018-08-24T22:19:32.015Z,1.50
2018-08-24T22:22:01.386Z,1.43
2018-08-24T22:24:30.084Z,1.30
2018-08-24T22:26:58.883Z,1.40
2018-08-24T22:29:27.617Z,1.10
2018-08-24T22:31:56.301Z,1.37
2018-08-24T22:34:25.140Z,1.13
2018-08-24T22:36:54.137Z,1.07
2018-08-24T22:39:23.130Z,1.13
2018-08-24T22:41:52.083Z,1.50
2018-08-24T22:44:21.713Z,1.27
2018-08-24T22:46:50.416Z,1.57
2018-08-24T22:49:19.139Z,1.60
2018-08-24T22:51:47.865Z,1.17
2018-08-24T22:54:16.556Z,1.30
2018-08-24T22:56:45.342Z,1.57
2018-08-24T22:59:14.221Z,1.30
2018-08-24T23:01:43.006Z,1.20
2018-08-24T23:04:11.820Z,1.07
2018-08-24T23:06:41.490Z,1.10
2018-08-24T23:09:11.013Z,1.17
2018-08-24T23:11:39.917Z,1.10
2018-08-24T23:14:08.786Z,1.70
2018-08-24T23:16:37.665Z,1.13
2018-08-24T23:19:06.480Z,0.97
2018-08-24T23:21:35.219Z,1.40
2018-08-24T23:24:04.946Z,1.17
2018-08-24T23:26:33.653Z,1.37
2018-08-24T23:29:02.259Z,1.17
2018-08-24T23:31:31.000Z,1.30
2018-08-24T23:33:59.679Z,1.20
2018-08-24T23:36:28.453Z,1.33
2018-08-24T23:38:57.157Z,1.77
2018-08-24T23:41:25.880Z,1.40
2018-08-24T23:43:54.864Z,1.63
2018-08-24T23:46:23.740Z,1.53
2018-08-24T23:48:52.471Z,1.40
2018-08-24T23:51:21.234Z,1.80
2018-08-24T23:53:49.913Z,1.33
2018-08-24T23:56:18.641Z,1.50
2018-08-24T23:58:47.349Z,1.23
